EDDTDTTD

Guest
Details From EDDT - Berlin Tegel
To DTTD - Remada
Flight Number -
Tags Generated
Created
Modified
Stats Distance 1,223 nm / 2,266 km
Max Altitude 0 ft / 0 m
Waypoints 5
Social Downloads 1
Likes 0
Share VATSIM

Download

Looking for another format? Having issues loading an existing format? Contact us
Advertisement - Login to hide

Notes

Generated

Route

EDDT BIXEL MARAK REMDA DTTD

ID Type Via Altitude Latitude Longitude Leg Dist Tot Dist Heading (true) Name
O EDDT APT - 0 ft / 0 m 52.55668˚ 13.27499˚ - 0 nm - -
BIXEL FIX - 0 ft / 0 m 48.69750˚ 12.58472˚ 233 nm 233 nm 187° / 186° -
MARAK FIX - 0 ft / 0 m 44.24917˚ 11.91972˚ 268 nm 501 nm 186° / 186° -
REMDA FIX - 0 ft / 0 m 32.29611˚ 10.37611˚ 721 nm 1223 nm 186° / 185° -
O DTTD APT - 0 ft / 0 m 32.29625˚ 10.37721˚ 0 nm 1223 nm 81° / 81° -

Altitude Profile

Advertisement - Login to hide

Weather


0- 5 10 15 20 25 30 35+ Temperature / ° C

Clouds and Precipitation
Forecast for 2017-12-13 00:00 UTC. Updated 28 minutes ago

Ground ~20,000 ft ~40,000 ft Winds

EDDT

Details ICAO EDDT (TXL)
Name Berlin Tegel
Region Germany - Civil
Timezone Europe/Berlin (UTC+1.0)
Stats Elevation 122 ft / 37 m (AMSL)
Location 52.559100° 13.290188°
Runways 2
Magnetic Variation 3.751° E

METAR

EDDT 122120Z 25011KT 9999 FEW008 BKN010 02/00 Q1012 TEMPO BKN009

Decode

TAF

TAF EDDT 121700Z 1218/1318 25015KT 9999 BKN015 TEMPO 1218/1221 4000 -RASN BKN009 BECMG 1221/1224 22010KT TEMPO 1221/1306 BKN011 PROB30 TEMPO 1309/1318 18015G25KT

Decode

Departure Runways

ID Width Length Bearing (true) Bearing (mag) Surface Threshold Offset Overrun Length
08L 151 ft / 46 m 9,885 ft / 3,013 m 80.83° 77.08° Asphalt 0 ft / 0 m 226 ft / 69 m
08R 151 ft / 46 m 7,923 ft / 2,415 m 80.84° 77.09° Asphalt 341 ft / 104 m 207 ft / 63 m
26L 151 ft / 46 m 7,923 ft / 2,415 m 260.87° 257.12° Asphalt 722 ft / 220 m 157 ft / 48 m
26R 151 ft / 46 m 9,885 ft / 3,013 m 260.86° 257.11° Asphalt 0 ft / 0 m 223 ft / 68 m

DTTD

Details ICAO DTTD
Name REMADA
Region Tunisia
Timezone Africa/Tunis (UTC+1.0)
Stats Elevation 1,004 ft / 306 m (AMSL)
Location 32.306146° 10.382098°
Runways 1
Magnetic Variation 2.165° E

METAR

DTTD 122100Z AUTO 34002KT NCD 12/00 Q1021

Decode

TAF

Not found

Destination Runways

ID Width Length Bearing (true) Bearing (mag) Surface Threshold Offset Overrun Length
02 148 ft / 45 m 7,827 ft / 2,386 m 22.67° 20.50° Asphalt 0 ft / 0 m 0 ft / 0 m
20 148 ft / 45 m 7,827 ft / 2,386 m 202.67° 200.50° Asphalt 0 ft / 0 m 0 ft / 0 m